KBGD

Hutchinson County Airport

Borger, Texas, USA
METAR KBGD 191251Z AUTO 26006KT 10SM CLR M02/M04 A3014 RMK AO2 SLP220 T10221044
Observed Flight Rules
Nov-19 @ 12:51 UTC (52 minutes ago) Visual Flight Rules
Wind Visibility Clouds
260° at 6 knots 10 miles
  • Clear skies
Temperatures Readings
Current -2°C / 28°F
Dewpoint -4°C / 25°F
Humidity 86%
Altimeter 30.14" Hg
Pressure 1022 hPa
Elevation 927
METAR KBGD 191251Z AUTO 26006KT 10SM CLR M02/M04 A3014 RMK AO2 SLP220 T10221044
Observed Flight Rules
Nov-19 @ 12:51 UTC
(52 minutes ago)
VFR
Wind Visibility
260° at 6 knots 10 miles
Clouds
  • Clear skies
Temperature Dewpoint
-2°C / 28°F -4°C / 25°F
Humidity Altimeter Pressure
86% 30.14" Hg 1022 hPa